Time;durP1;ratioP1;P1;durP2;ratioP2;P2;SDS_P1;SDS_P2;PMS_P1;PMS_P2;Temp;Humidity;BMP_temperature;BMP_pressure;BME280_temperature;BME280_humidity;BME280_pressure;Samples;Min_cycle;Max_cycle;Signal;HPM_P1;HPM_P2
2023/03/19 00:00:18;;;;;;;40.53;36.15;;;9.80;99.90;;;;;;7373827;19;20533;-69
2023/03/19 00:02:49;;;;;;;39.25;35.03;;;9.80;99.90;;;;;;7362315;19;20925;-70
2023/03/19 00:05:16;;;;;;;40.00;35.78;;;9.80;99.90;;;;;;7370108;19;20018;-69
2023/03/19 00:07:44;;;;;;;41.88;35.08;;;9.80;99.90;;;;;;7374120;19;20034;-69
2023/03/19 00:10:10;;;;;;;40.22;35.85;;;9.70;99.90;;;;;;7373214;19;20015;-69
2023/03/19 00:12:36;;;;;;;41.28;36.22;;;9.80;99.90;;;;;;7367733;19;20021;-69
2023/03/19 00:15:03;;;;;;;39.40;35.38;;;9.80;99.90;;;;;;7368505;19;20025;-69
2023/03/19 00:17:29;;;;;;;43.30;36.85;;;9.90;99.90;;;;;;7366717;19;20026;-69
2023/03/19 00:19:56;;;;;;;42.35;36.65;;;9.90;99.90;;;;;;7373110;19;20025;-69
2023/03/19 00:22:24;;;;;;;42.42;36.72;;;9.90;99.90;;;;;;7370043;19;20014;-69
2023/03/19 00:24:51;;;;;;;41.70;36.53;;;9.90;99.90;;;;;;7369332;19;20019;-69
2023/03/19 00:27:17;;;;;;;40.25;35.95;;;10.00;99.90;;;;;;7371163;19;20890;-69
2023/03/19 00:29:43;;;;;;;41.30;36.28;;;10.00;99.90;;;;;;7371399;19;20015;-69
2023/03/19 00:32:09;;;;;;;39.08;34.88;;;10.00;99.90;;;;;;7372129;19;20022;-69
2023/03/19 00:34:36;;;;;;;40.05;35.75;;;10.00;99.90;;;;;;7367373;19;20121;-69
2023/03/19 00:37:02;;;;;;;39.90;35.70;;;10.00;99.90;;;;;;7372666;19;20018;-69
2023/03/19 00:39:28;;;;;;;38.60;34.40;;;10.00;99.90;;;;;;7371183;19;20027;-69
2023/03/19 00:41:55;;;;;;;40.40;34.67;;;10.10;99.90;;;;;;7374115;19;20019;-69
2023/03/19 00:44:21;;;;;;;38.83;34.20;;;10.10;99.90;;;;;;7371073;19;20593;-70
2023/03/19 00:46:47;;;;;;;35.17;31.33;;;10.10;99.90;;;;;;7373285;19;20410;-70
2023/03/19 00:49:14;;;;;;;34.67;29.48;;;10.10;99.90;;;;;;7373066;19;20482;-69
2023/03/19 00:51:42;;;;;;;32.95;29.52;;;10.10;99.90;;;;;;7374428;19;20023;-70
2023/03/19 00:54:10;;;;;;;30.90;27.75;;;10.20;99.90;;;;;;7367437;19;20039;-69
2023/03/19 00:56:37;;;;;;;29.38;26.35;;;10.20;99.90;;;;;;7363972;19;20027;-70
2023/03/19 00:59:03;;;;;;;29.58;26.45;;;10.20;99.90;;;;;;7366374;19;20018;-69
2023/03/19 01:01:29;;;;;;;33.55;27.75;;;10.20;99.90;;;;;;7368853;19;20506;-70
2023/03/19 01:03:56;;;;;;;31.10;26.25;;;10.30;99.90;;;;;;7364621;19;20370;-69
2023/03/19 01:06:22;;;;;;;27.48;24.63;;;10.30;99.90;;;;;;7369435;19;20035;-69
2023/03/19 01:08:48;;;;;;;28.00;25.13;;;10.30;99.90;;;;;;7372642;19;20018;-69
2023/03/19 01:11:16;;;;;;;25.27;22.55;;;10.40;99.90;;;;;;7372109;19;20015;-72
2023/03/19 01:13:42;;;;;;;22.88;20.58;;;10.30;99.90;;;;;;7370963;19;20022;-71
2023/03/19 01:16:09;;;;;;;24.55;21.85;;;10.40;99.90;;;;;;7369119;19;20022;-69
2023/03/19 01:18:36;;;;;;;24.98;22.48;;;10.40;99.90;;;;;;7372991;19;20386;-71
2023/03/19 01:21:03;;;;;;;25.98;23.17;;;10.40;99.90;;;;;;7370299;19;20022;-71
2023/03/19 01:23:30;;;;;;;22.85;20.45;;;10.40;99.90;;;;;;7371320;19;20023;-71
2023/03/19 01:25:57;;;;;;;24.83;20.73;;;10.40;99.90;;;;;;7366762;19;20065;-71
2023/03/19 01:28:26;;;;;;;22.63;20.33;;;10.40;99.90;;;;;;7372486;19;20569;-68
2023/03/19 01:30:56;;;;;;;22.10;19.75;;;10.40;99.90;;;;;;7370921;19;20470;-71
2023/03/19 01:33:41;;;;;;;22.75;19.25;;;10.40;99.90;;;;;;7372205;19;20025;-71
2023/03/19 01:36:16;;;;;;;22.13;19.83;;;10.30;99.90;;;;;;7361583;19;20050;-69
2023/03/19 01:39:12;;;;;;;22.95;20.55;;;10.30;99.90;;;;;;7368284;19;20358;-71
2023/03/19 01:41:39;;;;;;;24.40;20.80;;;10.20;99.90;;;;;;7371991;19;20025;-70
2023/03/19 01:44:30;;;;;;;24.23;21.38;;;10.30;99.90;;;;;;7362860;19;20015;-70
2023/03/19 01:47:33;;;;;;;23.63;21.17;;;10.30;99.90;;;;;;7363060;19;20022;-70
2023/03/19 01:50:27;;;;;;;24.10;21.58;;;10.20;99.90;;;;;;7365935;19;20029;-66
2023/03/19 01:53:26;;;;;;;25.58;22.88;;;10.20;99.90;;;;;;7361606;19;20060;-64
2023/03/19 01:56:11;;;;;;;27.55;23.50;;;10.20;99.90;;;;;;7364627;19;20025;-63
2023/03/19 01:58:49;;;;;;;;;;;10.10;99.90;;;;;;7368637;19;20680;-63
2023/03/19 02:01:27;;;;;;;28.15;23.48;;;10.10;99.90;;;;;;7365531;19;19945;-62
2023/03/19 02:03:54;;;;;;;27.33;23.33;;;10.00;99.90;;;;;;7367437;19;20023;-63
2023/03/19 02:06:29;;;;;;;30.60;24.27;;;10.00;99.90;;;;;;7369778;19;20042;-63
2023/03/19 02:08:55;;;;;;;27.50;24.58;;;10.00;99.90;;;;;;7369901;19;20038;-63
2023/03/19 02:11:22;;;;;;;26.60;23.77;;;9.90;99.90;;;;;;7366867;19;20022;-64
2023/03/19 02:13:52;;;;;;;26.48;23.65;;;9.90;99.90;;;;;;7370942;19;20030;-64
2023/03/19 02:16:19;;;;;;;27.30;24.40;;;9.90;99.90;;;;;;7368894;19;20672;-65
2023/03/19 02:18:46;;;;;;;32.53;25.60;;;9.80;99.90;;;;;;7372016;19;20039;-65
2023/03/19 02:21:16;;;;;;;28.80;25.15;;;9.90;99.90;;;;;;7369621;19;20131;-66
2023/03/19 02:23:49;;;;;;;26.95;24.10;;;9.80;99.90;;;;;;7370003;19;20025;-69
2023/03/19 02:26:21;;;;;;;27.70;24.25;;;9.80;99.90;;;;;;7368926;19;20022;-69
2023/03/19 02:28:51;;;;;;;29.33;25.35;;;9.80;99.90;;;;;;7367449;19;20815;-65
2023/03/19 02:31:22;;;;;;;29.00;25.17;;;9.70;99.90;;;;;;7365842;19;20015;-65
2023/03/19 02:34:22;;;;;;;29.65;26.48;;;9.70;99.90;;;;;;7369026;19;20138;-64
2023/03/19 02:37:02;;;;;;;33.22;27.33;;;9.70;99.90;;;;;;7366694;19;20568;-65
2023/03/19 02:39:37;;;;;;;31.17;27.83;;;9.70;99.90;;;;;;7357900;19;20410;-65
2023/03/19 02:42:05;;;;;;;32.65;27.90;;;9.70;99.90;;;;;;7362228;19;20405;-66
2023/03/19 02:44:31;;;;;;;30.60;27.30;;;9.70;99.90;;;;;;7363470;19;20015;-69
2023/03/19 02:46:58;;;;;;;32.20;28.05;;;9.70;99.90;;;;;;7360841;19;20406;-69
2023/03/19 02:49:24;;;;;;;31.85;28.40;;;9.70;99.90;;;;;;7365331;19;20489;-69
2023/03/19 02:51:53;;;;;;;33.05;29.25;;;9.70;99.90;;;;;;7369695;19;20014;-69
2023/03/19 02:54:19;;;;;;;32.50;28.42;;;9.70;99.90;;;;;;7367476;19;20726;-71
2023/03/19 02:56:47;;;;;;;34.63;29.17;;;9.80;99.90;;;;;;7364245;19;20019;-70
2023/03/19 02:59:14;;;;;;;37.45;28.38;;;9.70;99.90;;;;;;7366663;19;20022;-68
2023/03/19 03:01:40;;;;;;;33.95;27.40;;;9.70;99.90;;;;;;7364915;19;20025;-68
2023/03/19 03:04:09;;;;;;;31.92;28.48;;;9.70;99.90;;;;;;7360449;19;20035;-68
2023/03/19 03:06:36;;;;;;;31.10;27.73;;;9.70;99.90;;;;;;7367910;19;20025;-68
2023/03/19 03:09:03;;;;;;;30.52;26.52;;;9.70;99.90;;;;;;7371661;19;20517;-69
2023/03/19 03:11:31;;;;;;;31.38;27.88;;;9.70;99.90;;;;;;7369009;19;20078;-68
2023/03/19 03:13:57;;;;;;;33.58;27.65;;;9.60;99.90;;;;;;7367991;19;20432;-70
2023/03/19 03:16:24;;;;;;;28.55;25.35;;;9.60;99.90;;;;;;7363941;19;20053;-68
2023/03/19 03:18:50;;;;;;;29.83;26.02;;;9.60;99.90;;;;;;7368260;19;20050;-69
2023/03/19 03:21:20;;;;;;;29.38;25.80;;;9.60;99.90;;;;;;7372123;19;20018;-69
2023/03/19 03:23:47;;;;;;;28.40;23.25;;;9.50;99.90;;;;;;7376843;19;20018;-69
2023/03/19 03:26:14;;;;;;;26.33;22.30;;;9.60;99.90;;;;;;7378008;19;20119;-68
2023/03/19 03:28:40;;;;;;;26.17;23.50;;;9.60;99.90;;;;;;7378178;19;20044;-68
2023/03/19 03:31:07;;;;;;;26.25;22.38;;;9.60;99.90;;;;;;7375745;19;20035;-70
2023/03/19 03:33:34;;;;;;;24.38;21.77;;;9.60;99.90;;;;;;7368443;19;20022;-71
2023/03/19 03:36:00;;;;;;;21.75;19.40;;;9.50;99.90;;;;;;7371554;19;20022;-70
2023/03/19 03:38:26;;;;;;;23.10;20.63;;;9.60;99.90;;;;;;7366857;19;20497;-70
2023/03/19 03:40:53;;;;;;;20.10;17.90;;;9.60;99.90;;;;;;7368146;19;20022;-68
2023/03/19 03:43:24;;;;;;;20.23;18.13;;;9.60;99.90;;;;;;7371439;19;20018;-68
2023/03/19 03:45:52;;;;;;;21.50;17.95;;;9.60;99.90;;;;;;7372803;19;20018;-68
2023/03/19 03:48:20;;;;;;;21.40;17.25;;;9.60;99.90;;;;;;7375484;19;20605;-68
2023/03/19 03:50:46;;;;;;;20.88;17.20;;;9.70;99.90;;;;;;7371704;19;20022;-68
2023/03/19 03:53:17;;;;;;;19.20;16.98;;;9.70;99.90;;;;;;7373143;19;20035;-68
2023/03/19 03:55:43;;;;;;;17.75;15.60;;;9.70;99.90;;;;;;7369533;19;20010;-69
2023/03/19 03:58:11;;;;;;;16.60;13.85;;;9.70;99.90;;;;;;7371310;19;20097;-69
2023/03/19 04:00:38;;;;;;;14.95;12.75;;;9.70;99.90;;;;;;7370550;19;20371;-69
2023/03/19 04:03:04;;;;;;;12.75;11.45;;;9.70;99.90;;;;;;7375691;19;20026;-69
2023/03/19 04:05:31;;;;;;;12.18;10.55;;;9.80;99.90;;;;;;7371099;19;20019;-69
2023/03/19 04:07:57;;;;;;;12.73;10.80;;;9.80;99.90;;;;;;7372357;19;20065;-69
2023/03/19 04:10:24;;;;;;;12.50;11.00;;;9.80;99.90;;;;;;7370563;19;20019;-71
2023/03/19 04:12:53;;;;;;;11.90;10.65;;;9.80;99.90;;;;;;7373134;19;20389;-70
2023/03/19 04:15:20;;;;;;;11.13;9.38;;;9.80;99.90;;;;;;7371297;19;20029;-70
2023/03/19 04:17:47;;;;;;;10.57;9.48;;;9.80;99.90;;;;;;7372077;19;20498;-70
2023/03/19 04:20:17;;;;;;;11.15;9.32;;;9.80;99.90;;;;;;7371256;19;20035;-70
2023/03/19 04:22:44;;;;;;;11.48;9.98;;;9.80;99.90;;;;;;7372501;19;20022;-71
2023/03/19 04:25:11;;;;;;;13.27;10.23;;;9.80;99.90;;;;;;7370530;19;20018;-70
2023/03/19 04:27:38;;;;;;;12.98;9.23;;;9.80;99.90;;;;;;7372000;19;20389;-70
2023/03/19 04:30:08;;;;;;;9.93;8.90;;;9.80;99.90;;;;;;7370282;19;20024;-70
2023/03/19 04:32:35;;;;;;;10.65;9.50;;;9.80;99.90;;;;;;7371811;19;20049;-70
2023/03/19 04:35:02;;;;;;;10.68;9.57;;;9.80;99.90;;;;;;7369417;19;20672;-70
2023/03/19 04:37:29;;;;;;;10.05;8.98;;;9.70;99.90;;;;;;7370494;19;20022;-70
2023/03/19 04:39:58;;;;;;;12.77;9.90;;;9.70;99.90;;;;;;7369367;19;20022;-70
2023/03/19 04:42:28;;;;;;;10.00;8.85;;;9.60;99.90;;;;;;7364351;19;20511;-70
2023/03/19 04:45:06;;;;;;;11.02;9.02;;;9.60;99.90;;;;;;7368075;19;20018;-70
2023/03/19 04:47:33;;;;;;;10.05;8.80;;;9.50;99.90;;;;;;7364196;19;20074;-71
2023/03/19 04:50:00;;;;;;;10.18;9.07;;;9.40;99.90;;;;;;7369853;19;20381;-70
2023/03/19 04:52:28;;;;;;;10.10;9.00;;;9.30;99.90;;;;;;7371252;19;20050;-70
2023/03/19 04:54:54;;;;;;;11.20;8.93;;;9.20;99.90;;;;;;7372612;19;20510;-70
2023/03/19 04:57:20;;;;;;;11.50;9.07;;;9.20;99.90;;;;;;7369532;19;20372;-70
2023/03/19 04:59:48;;;;;;;12.23;9.52;;;9.10;99.90;;;;;;7370904;19;20573;-71
2023/03/19 05:02:16;;;;;;;10.43;8.52;;;9.10;99.90;;;;;;7374106;19;20389;-69
2023/03/19 05:04:43;;;;;;;10.50;8.55;;;9.10;99.90;;;;;;7370969;19;20079;-69
2023/03/19 05:07:12;;;;;;;12.25;9.15;;;9.00;99.90;;;;;;7373130;19;20132;-69
2023/03/19 05:09:46;;;;;;;12.93;9.15;;;9.00;99.90;;;;;;7374400;19;20034;-69
2023/03/19 05:12:14;;;;;;;12.00;8.52;;;9.00;99.90;;;;;;7371165;19;20022;-69
2023/03/19 05:14:45;;;;;;;10.43;7.87;;;8.90;99.90;;;;;;7367807;19;20028;-69
2023/03/19 05:17:18;;;;;;;10.73;8.05;;;8.80;99.90;;;;;;7370653;19;20022;-69
2023/03/19 05:19:57;;;;;;;10.00;8.82;;;8.80;99.90;;;;;;7372410;19;20022;-69
2023/03/19 05:22:25;;;;;;;12.02;8.32;;;8.70;99.90;;;;;;7372999;19;20014;-68
2023/03/19 05:24:52;;;;;;;10.40;9.27;;;8.60;99.90;;;;;;7364944;19;20010;-68
2023/03/19 05:31:14;;;;;;;12.07;8.57;;;8.50;99.90;;;;;;7365576;19;19998;-69
2023/03/19 05:33:45;;;;;;;10.73;8.20;;;8.40;99.90;;;;;;7366425;19;20421;-69
2023/03/19 05:36:12;;;;;;;11.93;8.75;;;8.40;99.90;;;;;;7366372;19;20074;-68
2023/03/19 05:39:02;;;;;;;13.32;9.48;;;8.30;99.90;;;;;;7370636;19;20021;-69
2023/03/19 05:41:33;;;;;;;;;;;8.30;99.90;;;;;;7369073;19;20221;-69
2023/03/19 05:44:03;;;;;;;11.52;8.60;;;8.30;99.90;;;;;;7367544;19;19922;-68
2023/03/19 05:47:02;;;;;;;11.60;9.68;;;8.20;99.90;;;;;;7366501;19;20140;-69
2023/03/19 05:49:32;;;;;;;11.77;9.95;;;8.20;99.90;;;;;;7368746;19;20485;-72
2023/03/19 05:51:59;;;;;;;11.50;9.30;;;8.20;99.90;;;;;;7373750;19;20014;-71
2023/03/19 05:54:25;;;;;;;13.75;10.90;;;8.20;99.90;;;;;;7366247;19;20018;-69
2023/03/19 05:57:16;;;;;;;11.10;9.93;;;8.20;99.90;;;;;;7369987;19;20022;-72
2023/03/19 06:00:10;;;;;;;13.38;11.45;;;8.20;99.90;;;;;;7370160;19;20111;-69
2023/03/19 06:02:36;;;;;;;15.13;11.77;;;8.30;99.90;;;;;;7366365;19;20029;-69
2023/03/19 06:05:28;;;;;;;15.05;10.90;;;8.30;99.90;;;;;;7365764;19;20370;-69
2023/03/19 06:07:59;;;;;;;15.30;12.37;;;8.30;99.90;;;;;;7365590;19;20018;-69
2023/03/19 06:10:46;;;;;;;17.02;13.57;;;8.40;99.90;;;;;;7362457;19;20390;-69
2023/03/19 06:13:13;;;;;;;13.68;12.10;;;8.40;99.90;;;;;;7362824;19;20015;-68
2023/03/19 06:15:44;;;;;;;16.80;12.90;;;8.40;99.90;;;;;;7357388;19;20029;-68
2023/03/19 06:18:23;;;;;;;14.40;12.93;;;8.30;99.90;;;;;;7358736;19;20461;-69
2023/03/19 06:20:49;;;;;;;17.08;12.82;;;8.40;99.90;;;;;;7359410;19;20090;-69
2023/03/19 06:23:17;;;;;;;14.55;13.02;;;8.40;99.90;;;;;;7367828;19;20592;-69
2023/03/19 06:29:38;;;;;;;14.45;12.35;;;8.40;99.90;;;;;;7364934;19;20002;-68
2023/03/19 06:32:30;;;;;;;18.95;13.45;;;8.40;99.90;;;;;;7369985;19;20039;-68
2023/03/19 06:35:00;;;;;;;15.70;13.43;;;8.40;99.90;;;;;;7363802;19;20439;-68
2023/03/19 06:37:27;;;;;;;17.02;13.38;;;8.40;99.90;;;;;;7363440;19;20021;-68
2023/03/19 06:39:53;;;;;;;17.15;12.95;;;8.50;99.90;;;;;;7367577;19;20023;-68
2023/03/19 06:42:20;;;;;;;16.30;13.05;;;8.50;99.90;;;;;;7370399;19;20060;-69
2023/03/19 06:44:47;;;;;;;16.48;13.25;;;8.50;99.90;;;;;;7368476;19;20795;-69
2023/03/19 06:47:14;;;;;;;16.35;12.77;;;8.50;99.90;;;;;;7370720;19;20029;-68
2023/03/19 06:49:42;;;;;;;15.48;12.73;;;8.50;99.90;;;;;;7365688;19;20022;-68
2023/03/19 06:52:08;;;;;;;15.75;12.80;;;8.50;99.90;;;;;;7370263;19;20362;-69
2023/03/19 06:54:35;;;;;;;17.42;12.85;;;8.40;99.90;;;;;;7368933;19;20018;-68
2023/03/19 06:57:04;;;;;;;17.30;13.43;;;8.40;99.90;;;;;;7377660;19;20026;-68
2023/03/19 06:59:31;;;;;;;16.92;13.70;;;8.30;99.90;;;;;;7372800;19;20023;-68
2023/03/19 07:01:57;;;;;;;17.52;14.05;;;8.40;99.90;;;;;;7370452;19;20015;-68
2023/03/19 07:04:23;;;;;;;16.92;13.75;;;8.50;99.90;;;;;;7369496;19;20043;-68
2023/03/19 07:06:50;;;;;;;18.90;13.77;;;8.60;99.90;;;;;;7372003;19;20022;-69
2023/03/19 07:09:16;;;;;;;18.42;14.50;;;8.80;99.90;;;;;;7375810;19;20031;-69
2023/03/19 07:11:45;;;;;;;19.42;14.25;;;9.00;99.90;;;;;;7376973;19;20021;-69
2023/03/19 07:14:11;;;;;;;17.17;13.55;;;9.10;99.90;;;;;;7376971;19;20039;-69
2023/03/19 07:16:37;;;;;;;17.20;13.98;;;9.50;99.90;;;;;;7371503;19;20090;-69
2023/03/19 07:19:03;;;;;;;16.17;12.30;;;9.70;99.90;;;;;;7376003;19;20022;-69
2023/03/19 07:21:29;;;;;;;14.73;11.57;;;9.90;99.90;;;;;;7370931;19;20023;-69
2023/03/19 07:23:56;;;;;;;12.13;10.80;;;10.20;99.90;;;;;;7374798;19;20279;-70
2023/03/19 07:26:22;;;;;;;12.18;10.75;;;10.40;99.90;;;;;;7371828;19;20014;-70
2023/03/19 07:28:48;;;;;;;11.32;10.13;;;10.70;99.90;;;;;;7374285;19;20018;-71
2023/03/19 07:31:15;;;;;;;12.23;10.45;;;10.90;99.90;;;;;;7377378;19;20019;-69
2023/03/19 07:33:42;;;;;;;10.45;9.43;;;11.10;99.90;;;;;;7372166;19;20020;-70
2023/03/19 07:36:09;;;;;;;12.05;9.30;;;11.20;99.90;;;;;;7372744;19;20026;-70
2023/03/19 07:38:35;;;;;;;10.15;9.13;;;11.30;99.90;;;;;;7372175;19;20025;-69
2023/03/19 07:41:01;;;;;;;11.55;9.45;;;11.20;99.90;;;;;;7371926;19;20113;-69
2023/03/19 07:43:27;;;;;;;10.93;9.93;;;11.00;99.90;;;;;;7363323;19;20014;-69
2023/03/19 07:45:54;;;;;;;12.65;10.48;;;11.00;99.90;;;;;;7367083;19;20021;-69
2023/03/19 07:48:20;;;;;;;11.45;10.32;;;10.70;99.90;;;;;;7373767;19;20036;-74
2023/03/19 07:50:50;;;;;;;14.25;11.68;;;10.60;99.90;;;;;;7372456;19;20486;-69
2023/03/19 07:53:17;;;;;;;12.82;11.50;;;10.80;99.90;;;;;;7367286;19;20136;-70
2023/03/19 07:55:43;;;;;;;12.40;11.10;;;11.30;99.90;;;;;;7370209;19;20018;-70
2023/03/19 07:58:10;;;;;;;11.40;10.20;;;11.60;99.90;;;;;;7373304;19;20821;-69
2023/03/19 08:00:36;;;;;;;12.77;10.60;;;12.00;99.90;;;;;;7362947;19;20022;-69
2023/03/19 08:03:02;;;;;;;11.88;10.68;;;12.40;99.90;;;;;;7368374;19;20454;-69
2023/03/19 08:05:29;;;;;;;11.88;10.45;;;13.00;99.90;;;;;;7367560;19;20509;-69
2023/03/19 08:07:58;;;;;;;10.57;9.48;;;13.20;99.90;;;;;;7367582;19;20018;-69
2023/03/19 08:10:24;;;;;;;12.02;10.50;;;13.60;99.90;;;;;;7369425;19;20062;-68
2023/03/19 08:12:51;;;;;;;10.65;9.15;;;14.00;99.90;;;;;;7373539;19;20010;-68
2023/03/19 08:15:17;;;;;;;11.18;9.95;;;14.10;99.90;;;;;;7371609;19;20018;-70
2023/03/19 08:17:44;;;;;;;11.98;10.77;;;14.50;99.90;;;;;;7371677;19;20027;-69
2023/03/19 08:20:13;;;;;;;12.20;10.65;;;14.50;99.90;;;;;;7376706;19;20015;-69
2023/03/19 08:22:40;;;;;;;12.65;11.35;;;13.90;99.90;;;;;;7377771;19;20039;-68
2023/03/19 08:25:07;;;;;;;11.73;10.52;;;14.10;99.90;;;;;;7374915;19;20018;-68
2023/03/19 08:27:37;;;;;;;12.75;11.55;;;14.20;99.90;;;;;;7369928;19;20596;-69
2023/03/19 08:30:06;;;;;;;13.60;12.20;;;14.10;99.90;;;;;;7374780;19;20369;-67
2023/03/19 08:32:33;;;;;;;13.25;11.88;;;14.20;99.90;;;;;;7373928;19;20840;-68
2023/03/19 08:35:03;;;;;;;13.40;12.07;;;14.30;99.90;;;;;;7372282;19;20026;-67
2023/03/19 08:37:32;;;;;;;13.15;11.82;;;14.50;99.90;;;;;;7374316;19;20446;-69
2023/03/19 08:39:59;;;;;;;13.75;12.35;;;14.30;99.90;;;;;;7376705;19;20022;-69
2023/03/19 08:42:28;;;;;;;14.63;13.32;;;13.90;99.90;;;;;;7373813;19;20449;-70
2023/03/19 08:44:54;;;;;;;14.95;13.45;;;13.20;99.90;;;;;;7373455;19;20025;-69
2023/03/19 08:47:23;;;;;;;16.85;15.07;;;12.90;99.90;;;;;;7372166;19;20014;-68
2023/03/19 08:49:52;;;;;;;17.10;15.05;;;12.60;99.90;;;;;;7374494;19;20007;-69
2023/03/19 08:52:19;;;;;;;15.77;14.27;;;12.60;99.90;;;;;;7373543;19;20035;-69
2023/03/19 08:54:45;;;;;;;15.43;13.02;;;12.80;99.90;;;;;;7371616;19;20715;-70
2023/03/19 08:57:12;;;;;;;15.05;12.95;;;12.70;99.90;;;;;;7371176;19;20022;-69
2023/03/19 08:59:38;;;;;;;13.45;12.05;;;12.50;99.90;;;;;;7369922;19;20545;-70
2023/03/19 09:02:04;;;;;;;13.07;11.80;;;12.40;99.90;;;;;;7370717;19;20434;-70
2023/03/19 09:04:35;;;;;;;13.82;11.40;;;12.40;99.90;;;;;;7368596;19;20078;-69
2023/03/19 09:07:01;;;;;;;11.10;9.95;;;12.30;99.90;;;;;;7376144;19;20023;-69
2023/03/19 09:09:28;;;;;;;10.65;9.55;;;12.20;99.90;;;;;;7368574;19;20019;-69
2023/03/19 09:11:54;;;;;;;11.75;10.55;;;12.20;99.90;;;;;;7371105;19;20015;-70
2023/03/19 09:14:21;;;;;;;12.85;11.55;;;12.20;99.90;;;;;;7368121;19;20026;-69
2023/03/19 09:16:48;;;;;;;11.88;10.52;;;12.10;99.90;;;;;;7369553;19;20022;-69
2023/03/19 09:19:14;;;;;;;12.60;11.30;;;12.00;99.90;;;;;;7373454;19;20494;-69
2023/03/19 09:21:41;;;;;;;11.02;9.93;;;12.00;99.90;;;;;;7366807;19;20030;-70
2023/03/19 09:24:07;;;;;;;11.73;10.52;;;12.10;99.90;;;;;;7373758;19;20021;-69
2023/03/19 09:26:33;;;;;;;11.13;10.02;;;12.30;99.90;;;;;;7371729;19;20529;-72
2023/03/19 09:29:00;;;;;;;10.63;9.50;;;12.60;99.90;;;;;;7374731;19;20125;-69
2023/03/19 09:31:27;;;;;;;10.82;9.77;;;12.80;99.90;;;;;;7372782;19;20010;-72
2023/03/19 09:33:53;;;;;;;11.98;10.63;;;12.80;99.90;;;;;;7368544;19;20018;-73
2023/03/19 09:36:20;;;;;;;11.32;10.23;;;13.20;99.90;;;;;;7362178;19;20702;-73
2023/03/19 09:38:46;;;;;;;12.07;10.50;;;13.60;99.90;;;;;;7366978;19;20023;-72
2023/03/19 09:41:23;;;;;;;11.20;10.15;;;13.80;99.90;;;;;;7368020;19;20030;-72
2023/03/19 09:43:55;;;;;;;11.00;9.95;;;13.50;99.90;;;;;;7368669;19;20026;-71
2023/03/19 09:46:40;;;;;;;11.05;9.95;;;13.20;99.90;;;;;;7372887;19;20018;-72
2023/03/19 09:49:26;;;;;;;11.73;10.48;;;13.10;99.90;;;;;;7375276;19;20046;-72
2023/03/19 09:52:01;;;;;;;13.15;11.18;;;13.20;99.90;;;;;;7367505;19;20121;-72
2023/03/19 09:54:47;;;;;;;12.10;10.57;;;13.10;99.90;;;;;;7366288;19;21231;-72
2023/03/19 09:57:14;;;;;;;12.13;10.55;;;13.00;99.90;;;;;;7371378;19;20521;-73
2023/03/19 09:59:40;;;;;;;12.75;11.43;;;13.00;99.90;;;;;;7368914;19;20026;-73
2023/03/19 10:02:31;;;;;;;11.55;10.40;;;12.90;99.90;;;;;;7358932;19;20516;-73
2023/03/19 10:05:21;;;;;;;11.60;10.48;;;12.80;99.90;;;;;;7358520;19;20473;-72
2023/03/19 10:08:08;;;;;;;12.30;11.00;;;12.70;99.90;;;;;;7360571;19;20023;-72
2023/03/19 10:11:04;;;;;;;11.32;10.20;;;12.70;99.90;;;;;;7363777;19;20022;-72
2023/03/19 10:13:46;;;;;;;11.73;10.52;;;12.70;99.90;;;;;;7364003;19;20533;-72
2023/03/19 10:16:20;;;;;;;12.02;10.82;;;12.90;99.90;;;;;;7369523;19;20411;-73
2023/03/19 10:18:53;;;;;;;12.52;11.30;;;13.00;99.90;;;;;;7360856;19;20011;-70
2023/03/19 10:21:56;;;;;;;14.18;12.05;;;12.90;99.90;;;;;;7360108;19;20531;-70
2023/03/19 10:24:41;;;;;;;13.90;12.35;;;12.90;99.90;;;;;;7368703;19;20012;-70
2023/03/19 10:27:19;;;;;;;14.27;12.93;;;12.90;99.90;;;;;;7365123;19;20022;-69
2023/03/19 10:29:46;;;;;;;15.57;13.90;;;13.00;99.90;;;;;;7367019;19;20054;-70
2023/03/19 10:32:17;;;;;;;14.00;12.63;;;13.10;99.90;;;;;;7357784;19;20509;-73
2023/03/19 10:34:49;;;;;;;14.45;13.05;;;13.20;99.90;;;;;;7363923;19;20506;-73
2023/03/19 10:37:27;;;;;;;15.38;13.63;;;13.10;99.90;;;;;;7365453;19;20074;-73
2023/03/19 10:39:58;;;;;;;16.23;13.82;;;13.10;99.90;;;;;;7366875;19;20015;-74
2023/03/19 10:42:43;;;;;;;;;;;13.20;99.90;;;;;;7355734;19;20029;-73
2023/03/19 10:45:28;;;;;;;14.32;12.77;;;13.40;99.90;;;;;;7357300;19;19986;-74
2023/03/19 10:47:58;;;;;;;13.80;12.38;;;13.70;99.90;;;;;;7358507;19;20107;-70
2023/03/19 10:50:28;;;;;;;14.82;13.43;;;13.70;99.90;;;;;;7364161;19;20015;-70
2023/03/19 10:53:13;;;;;;;15.18;13.57;;;13.70;99.90;;;;;;7364634;19;20022;-69
2023/03/19 10:56:06;;;;;;;14.90;13.35;;;13.80;99.90;;;;;;7360998;19;20024;-69
2023/03/19 10:58:35;;;;;;;16.17;14.57;;;13.60;99.90;;;;;;7354276;19;20025;-69
2023/03/19 11:01:11;;;;;;;14.95;13.43;;;13.70;99.90;;;;;;7356389;19;20595;-69
2023/03/19 11:03:47;;;;;;;15.10;13.70;;;13.70;99.90;;;;;;7357913;19;20018;-69
2023/03/19 11:06:17;;;;;;;15.30;13.77;;;13.80;99.90;;;;;;7367213;19;20025;-70
2023/03/19 11:09:01;;;;;;;15.53;14.03;;;13.80;99.90;;;;;;7360778;19;20129;-69
2023/03/19 11:11:35;;;;;;;15.93;14.30;;;14.40;99.90;;;;;;7365095;19;20014;-70
2023/03/19 11:14:16;;;;;;;15.02;13.52;;;15.20;99.90;;;;;;7368479;19;20489;-70
2023/03/19 11:16:49;;;;;;;15.00;13.50;;;15.30;99.90;;;;;;7365255;19;20033;-71
2023/03/19 11:19:31;;;;;;;13.10;11.88;;;15.50;99.90;;;;;;7365327;19;20025;-71
2023/03/19 11:22:07;;;;;;;13.52;12.27;;;16.40;99.90;;;;;;7366473;19;20398;-70
2023/03/19 11:24:38;;;;;;;13.23;12.02;;;16.80;99.90;;;;;;7361872;19;20059;-71
2023/03/19 11:27:06;;;;;;;12.27;10.98;;;17.10;99.90;;;;;;7368960;19;20018;-70
2023/03/19 11:29:39;;;;;;;12.30;10.93;;;17.50;99.90;;;;;;7357003;19;20018;-71
2023/03/19 11:32:11;;;;;;;13.35;12.05;;;17.40;99.90;;;;;;7368353;19;20347;-69
2023/03/19 11:35:02;;;;;;;13.73;12.35;;;17.00;99.90;;;;;;7349855;19;20070;-70
2023/03/19 11:37:50;;;;;;;13.57;12.27;;;16.30;99.90;;;;;;7355910;19;20351;-70
2023/03/19 11:40:30;;;;;;;13.25;11.95;;;15.90;99.90;;;;;;7359630;19;20463;-70
2023/03/19 11:43:16;;;;;;;13.00;11.82;;;16.10;99.90;;;;;;7373094;19;20023;-71
2023/03/19 11:46:13;;;;;;;12.82;11.63;;;15.90;99.90;;;;;;7372914;19;20033;-70
2023/03/19 11:48:42;;;;;;;13.60;12.30;;;15.80;99.90;;;;;;7368728;19;20019;-71
2023/03/19 11:51:24;;;;;;;12.57;11.27;;;16.10;99.90;;;;;;7367860;19;20019;-71
2023/03/19 11:54:16;;;;;;;12.50;11.40;;;17.10;99.90;;;;;;7373228;19;20029;-70
2023/03/19 11:56:47;;;;;;;12.25;11.15;;;18.00;99.90;;;;;;7375267;19;20048;-70
2023/03/19 11:59:55;;;;;;;11.38;10.00;;;18.60;99.90;;;;;;7372583;19;20041;-69
2023/03/19 12:02:43;;;;;;;11.27;10.25;;;19.10;99.90;;;;;;7371234;19;20525;-69
2023/03/19 12:05:34;;;;;;;10.55;9.45;;;18.90;99.90;;;;;;7377649;19;20030;-69
2023/03/19 12:08:38;;;;;;;13.90;10.30;;;18.30;99.90;;;;;;7360523;19;20533;-70
2023/03/19 12:11:30;;;;;;;12.68;11.48;;;17.70;99.90;;;;;;7363680;19;20094;-70
2023/03/19 12:14:06;;;;;;;12.55;11.35;;;17.20;99.90;;;;;;7372110;19;20022;-71
2023/03/19 12:16:57;;;;;;;12.23;10.90;;;17.00;99.90;;;;;;7374089;19;20018;-70
2023/03/19 12:19:41;;;;;;;12.05;10.85;;;17.20;99.90;;;;;;7369127;19;20031;-70
2023/03/19 12:22:43;;;;;;;12.00;10.82;;;17.40;99.90;;;;;;7374690;19;20583;-69
2023/03/19 12:25:48;;;;;;;12.23;10.90;;;17.70;99.90;;;;;;7374222;19;20614;-69
2023/03/19 12:28:24;;;;;;;12.90;11.63;;;17.70;99.90;;;;;;7367067;19;20070;-71
2023/03/19 12:31:10;;;;;;;12.77;11.48;;;17.70;99.90;;;;;;7372102;19;20022;-68
2023/03/19 12:33:57;;;;;;;11.55;10.45;;;17.10;99.90;;;;;;7374895;19;20010;-70
2023/03/19 12:36:41;;;;;;;12.80;11.60;;;17.90;99.90;;;;;;7368736;19;20022;-68
2023/03/19 12:39:16;;;;;;;12.15;10.93;;;18.10;99.90;;;;;;7361301;19;20544;-68
2023/03/19 12:41:46;;;;;;;12.23;10.93;;;17.90;99.90;;;;;;7364992;19;20018;-68
2023/03/19 12:44:35;;;;;;;13.52;12.10;;;17.40;99.90;;;;;;7375216;19;20378;-69
2023/03/19 12:47:24;;;;;;;12.85;11.65;;;17.50;99.90;;;;;;7371513;19;20026;-75
2023/03/19 12:50:12;;;;;;;13.77;12.38;;;16.90;99.90;;;;;;7362767;19;20022;-69
2023/03/19 12:52:59;;;;;;;12.48;11.25;;;16.60;99.90;;;;;;7371971;19;21139;-69
2023/03/19 12:55:43;;;;;;;12.10;10.77;;;17.00;99.90;;;;;;7373144;19;20023;-68
2023/03/19 12:58:41;;;;;;;12.75;11.45;;;18.30;99.90;;;;;;7369877;19;20482;-68
2023/03/19 13:01:15;;;;;;;13.27;11.90;;;19.00;99.90;;;;;;7368877;19;20015;-70
2023/03/19 13:04:00;;;;;;;13.30;10.85;;;19.30;99.90;;;;;;7367546;19;20572;-76
2023/03/19 13:06:43;;;;;;;11.65;10.45;;;20.30;99.90;;;;;;7351729;19;20026;-76